Řízení letového provozu České republiky
Letiste: LKLN Aktualizace: 17.10.2017 23:48:05  UTC
 SPECI LKLN 17.10. 23:45 ...
SPECI LKLN 172345Z AUTO 29001KT 4000 FEW008 07/07 Q1019=
 SPECI LKLN 17.10. 23:24 ...
SPECI LKLN 172324Z AUTO 00000KT 8000 NSC 06/06 Q1019=
 METAR LKLN 17.10. 23:00 ...
METAR LKLN 172300Z AUTO 00000KT 4400 NCD 08/08 Q1020=